sensor_id;sensor_type;location;lat;lon;timestamp;pressure;altitude;pressure_sealevel;temperature;humidity
70254;BME280;57649;42.968;1.608;2023-03-11T00:00:35;96921.31;;;15.34;77.43
70254;BME280;57649;42.968;1.608;2023-03-11T00:48:06;96901.84;;;15.97;70.70
70254;BME280;57649;42.968;1.608;2023-03-11T00:50:35;96905.31;;;16.11;67.63
70254;BME280;57649;42.968;1.608;2023-03-11T00:53:02;96910.91;;;16.16;69.29
70254;BME280;57649;42.968;1.608;2023-03-11T00:55:30;96915.09;;;16.12;68.46
70254;BME280;57649;42.968;1.608;2023-03-11T00:57:58;96907.41;;;16.09;69.58
70254;BME280;57649;42.968;1.608;2023-03-11T01:00:25;96899.91;;;16.11;68.49
70254;BME280;57649;42.968;1.608;2023-03-11T01:02:51;96902.56;;;15.79;70.79
70254;BME280;57649;42.968;1.608;2023-03-11T01:05:21;96894.28;;;15.61;71.39
70254;BME280;57649;42.968;1.608;2023-03-11T01:07:47;96901.13;;;15.56;71.89
70254;BME280;57649;42.968;1.608;2023-03-11T01:10:13;96905.25;;;15.72;70.90
70254;BME280;57649;42.968;1.608;2023-03-11T01:12:39;96899.25;;;15.77;69.38
70254;BME280;57649;42.968;1.608;2023-03-11T01:15:05;96897.59;;;15.76;71.33
70254;BME280;57649;42.968;1.608;2023-03-11T01:17:31;96887.81;;;16.20;66.34
70254;BME280;57649;42.968;1.608;2023-03-11T01:19:56;96911.22;;;16.33;67.07
70254;BME280;57649;42.968;1.608;2023-03-11T01:22:22;96924.84;;;16.13;67.95
70254;BME280;57649;42.968;1.608;2023-03-11T01:24:47;96898.13;;;15.91;69.23
70254;BME280;57649;42.968;1.608;2023-03-11T01:27:13;96907.22;;;16.04;67.37
70254;BME280;57649;42.968;1.608;2023-03-11T01:29:38;96920.63;;;16.24;68.26
70254;BME280;57649;42.968;1.608;2023-03-11T01:32:04;96909.53;;;15.93;69.91
70254;BME280;57649;42.968;1.608;2023-03-11T01:34:31;96916.22;;;15.84;68.45
70254;BME280;57649;42.968;1.608;2023-03-11T01:36:57;96892.16;;;15.83;67.59
70254;BME280;57649;42.968;1.608;2023-03-11T01:39:23;96883.41;;;15.87;68.65
70254;BME280;57649;42.968;1.608;2023-03-11T01:41:48;96915.78;;;15.94;68.55
70254;BME280;57649;42.968;1.608;2023-03-11T01:44:13;96894.50;;;16.17;66.99
70254;BME280;57649;42.968;1.608;2023-03-11T01:49:26;96888.13;;;15.98;66.57
70254;BME280;57649;42.968;1.608;2023-03-11T01:52:01;96894.63;;;16.29;65.34
70254;BME280;57649;42.968;1.608;2023-03-11T01:54:32;96871.25;;;16.10;67.34
70254;BME280;57649;42.968;1.608;2023-03-11T01:57:01;96873.22;;;15.89;67.59
70254;BME280;57649;42.968;1.608;2023-03-11T01:59:32;96863.78;;;16.12;66.27
70254;BME280;57649;42.968;1.608;2023-03-11T02:04:44;96854.03;;;16.11;66.38
70254;BME280;57649;42.968;1.608;2023-03-11T02:07:10;96859.00;;;16.14;67.56
70254;BME280;57649;42.968;1.608;2023-03-11T02:09:37;96852.09;;;16.18;66.29
70254;BME280;57649;42.968;1.608;2023-03-11T02:12:04;96856.63;;;16.56;63.88
70254;BME280;57649;42.968;1.608;2023-03-11T02:14:30;96867.78;;;16.34;65.67
70254;BME280;57649;42.968;1.608;2023-03-11T02:16:56;96838.97;;;16.53;64.96
70254;BME280;57649;42.968;1.608;2023-03-11T02:19:45;96828.13;;;16.60;64.71
70254;BME280;57649;42.968;1.608;2023-03-11T02:22:15;96856.88;;;16.48;64.64
70254;BME280;57649;42.968;1.608;2023-03-11T02:27:42;96837.75;;;16.49;65.42
70254;BME280;57649;42.968;1.608;2023-03-11T02:30:10;96827.81;;;16.18;66.45
70254;BME280;57649;42.968;1.608;2023-03-11T02:32:37;96850.00;;;16.52;65.06
70254;BME280;57649;42.968;1.608;2023-03-11T02:35:03;96836.94;;;16.74;64.46
70254;BME280;57649;42.968;1.608;2023-03-11T02:37:28;96838.16;;;16.53;64.88
70254;BME280;57649;42.968;1.608;2023-03-11T02:39:54;96847.28;;;16.52;65.07
70254;BME280;57649;42.968;1.608;2023-03-11T02:42:39;96840.06;;;16.46;65.66
70254;BME280;57649;42.968;1.608;2023-03-11T02:45:09;96837.91;;;16.29;65.89
70254;BME280;57649;42.968;1.608;2023-03-11T02:47:37;96824.00;;;16.58;64.77
70254;BME280;57649;42.968;1.608;2023-03-11T02:50:04;96812.09;;;16.33;65.99
70254;BME280;57649;42.968;1.608;2023-03-11T02:52:34;96828.53;;;16.32;65.92
70254;BME280;57649;42.968;1.608;2023-03-11T02:54:59;96824.81;;;16.26;66.96
70254;BME280;57649;42.968;1.608;2023-03-11T02:57:25;96821.66;;;16.04;68.09
70254;BME280;57649;42.968;1.608;2023-03-11T02:59:50;96819.03;;;16.23;66.85
70254;BME280;57649;42.968;1.608;2023-03-11T03:02:16;96811.38;;;16.20;67.66
70254;BME280;57649;42.968;1.608;2023-03-11T03:04:41;96804.19;;;16.39;66.53
70254;BME280;57649;42.968;1.608;2023-03-11T03:07:07;96810.47;;;16.32;66.98
70254;BME280;57649;42.968;1.608;2023-03-11T03:09:33;96825.84;;;16.57;65.52
70254;BME280;57649;42.968;1.608;2023-03-11T03:11:59;96819.78;;;16.62;65.13
70254;BME280;57649;42.968;1.608;2023-03-11T03:14:25;96831.06;;;16.52;65.79
70254;BME280;57649;42.968;1.608;2023-03-11T03:16:50;96811.78;;;16.48;66.01
70254;BME280;57649;42.968;1.608;2023-03-11T03:19:16;96844.63;;;16.20;67.79
70254;BME280;57649;42.968;1.608;2023-03-11T03:21:41;96816.81;;;16.13;67.66
70254;BME280;57649;42.968;1.608;2023-03-11T03:24:07;96813.50;;;16.43;65.88
70254;BME280;57649;42.968;1.608;2023-03-11T03:26:32;96805.44;;;16.36;66.46
70254;BME280;57649;42.968;1.608;2023-03-11T03:28:57;96831.28;;;16.25;67.14
70254;BME280;57649;42.968;1.608;2023-03-11T03:31:24;96845.28;;;16.15;67.60
70254;BME280;57649;42.968;1.608;2023-03-11T03:33:49;96829.75;;;16.61;66.05
70254;BME280;57649;42.968;1.608;2023-03-11T03:36:15;96816.59;;;16.71;64.88
70254;BME280;57649;42.968;1.608;2023-03-11T03:38:41;96804.22;;;16.82;65.37
70254;BME280;57649;42.968;1.608;2023-03-11T03:41:06;96831.38;;;16.44;66.78
70254;BME280;57649;42.968;1.608;2023-03-11T03:43:32;96834.84;;;16.19;66.75
70254;BME280;57649;42.968;1.608;2023-03-11T03:45:59;96818.94;;;16.61;65.26
70254;BME280;57649;42.968;1.608;2023-03-11T03:48:25;96814.75;;;16.40;66.29
70254;BME280;57649;42.968;1.608;2023-03-11T03:50:51;96813.28;;;16.44;66.28
70254;BME280;57649;42.968;1.608;2023-03-11T03:53:16;96800.66;;;16.38;66.18
70254;BME280;57649;42.968;1.608;2023-03-11T03:55:42;96810.69;;;16.31;67.50
70254;BME280;57649;42.968;1.608;2023-03-11T03:58:07;96819.59;;;16.31;66.62
70254;BME280;57649;42.968;1.608;2023-03-11T04:00:33;96800.16;;;16.48;65.05
70254;BME280;57649;42.968;1.608;2023-03-11T04:02:59;96810.53;;;16.51;65.36
70254;BME280;57649;42.968;1.608;2023-03-11T04:05:25;96803.97;;;16.40;65.88
70254;BME280;57649;42.968;1.608;2023-03-11T04:07:52;96800.53;;;16.26;67.11
70254;BME280;57649;42.968;1.608;2023-03-11T04:10:18;96805.13;;;16.19;66.44
70254;BME280;57649;42.968;1.608;2023-03-11T04:12:43;96808.22;;;15.97;67.87
70254;BME280;57649;42.968;1.608;2023-03-11T04:15:09;96818.25;;;15.84;68.86
70254;BME280;57649;42.968;1.608;2023-03-11T04:17:35;96787.72;;;16.15;66.33
70254;BME280;57649;42.968;1.608;2023-03-11T04:20:01;96808.97;;;16.36;66.22
70254;BME280;57649;42.968;1.608;2023-03-11T04:22:26;96803.06;;;16.21;67.43
70254;BME280;57649;42.968;1.608;2023-03-11T04:24:51;96807.63;;;16.21;66.83
70254;BME280;57649;42.968;1.608;2023-03-11T04:27:17;96821.44;;;16.06;67.57
70254;BME280;57649;42.968;1.608;2023-03-11T04:29:42;96797.03;;;15.87;68.13
70254;BME280;57649;42.968;1.608;2023-03-11T04:32:08;96821.13;;;15.89;69.00
70254;BME280;57649;42.968;1.608;2023-03-11T04:34:33;96823.63;;;15.90;69.08
70254;BME280;57649;42.968;1.608;2023-03-11T04:36:58;96830.09;;;16.14;67.24
70254;BME280;57649;42.968;1.608;2023-03-11T04:39:24;96857.81;;;16.35;66.83
70254;BME280;57649;42.968;1.608;2023-03-11T04:41:49;96837.34;;;16.21;66.12
70254;BME280;57649;42.968;1.608;2023-03-11T04:44:15;96833.53;;;15.96;67.90
70254;BME280;57649;42.968;1.608;2023-03-11T04:46:40;96831.84;;;16.02;67.15
70254;BME280;57649;42.968;1.608;2023-03-11T04:49:05;96832.00;;;16.14;67.10
70254;BME280;57649;42.968;1.608;2023-03-11T04:51:31;96850.84;;;16.21;66.74
70254;BME280;57649;42.968;1.608;2023-03-11T04:53:56;96861.00;;;16.25;65.91
70254;BME280;57649;42.968;1.608;2023-03-11T04:56:21;96855.44;;;16.13;66.77
70254;BME280;57649;42.968;1.608;2023-03-11T04:58:47;96866.22;;;16.20;66.52
70254;BME280;57649;42.968;1.608;2023-03-11T05:01:12;96858.47;;;16.30;66.33
70254;BME280;57649;42.968;1.608;2023-03-11T05:03:38;96860.94;;;15.93;67.73
70254;BME280;57649;42.968;1.608;2023-03-11T05:06:03;96842.28;;;15.92;68.23
70254;BME280;57649;42.968;1.608;2023-03-11T05:08:29;96843.59;;;15.83;68.49
70254;BME280;57649;42.968;1.608;2023-03-11T05:10:54;96864.94;;;15.84;68.81
70254;BME280;57649;42.968;1.608;2023-03-11T05:13:20;96846.72;;;16.18;67.22
70254;BME280;57649;42.968;1.608;2023-03-11T05:15:46;96840.53;;;16.04;67.96
70254;BME280;57649;42.968;1.608;2023-03-11T05:18:12;96840.00;;;15.95;67.88
70254;BME280;57649;42.968;1.608;2023-03-11T05:20:38;96839.84;;;15.84;69.13
70254;BME280;57649;42.968;1.608;2023-03-11T05:23:03;96849.19;;;15.81;69.09
70254;BME280;57649;42.968;1.608;2023-03-11T05:25:29;96857.91;;;15.76;69.63
70254;BME280;57649;42.968;1.608;2023-03-11T05:27:55;96872.78;;;15.99;69.78
70254;BME280;57649;42.968;1.608;2023-03-11T05:30:20;96858.41;;;16.05;68.96
70254;BME280;57649;42.968;1.608;2023-03-11T05:32:46;96863.00;;;16.05;69.04
70254;BME280;57649;42.968;1.608;2023-03-11T05:35:11;96864.91;;;15.91;69.37
70254;BME280;57649;42.968;1.608;2023-03-11T05:37:37;96865.38;;;15.81;70.09
70254;BME280;57649;42.968;1.608;2023-03-11T05:40:05;96875.94;;;15.89;69.64
70254;BME280;57649;42.968;1.608;2023-03-11T05:42:33;96862.19;;;15.97;69.86
70254;BME280;57649;42.968;1.608;2023-03-11T05:44:58;96857.94;;;16.15;68.36
70254;BME280;57649;42.968;1.608;2023-03-11T05:47:24;96865.81;;;16.16;68.43
70254;BME280;57649;42.968;1.608;2023-03-11T05:49:49;96854.72;;;16.00;70.15
70254;BME280;57649;42.968;1.608;2023-03-11T05:52:15;96849.00;;;15.76;71.59
70254;BME280;57649;42.968;1.608;2023-03-11T05:54:41;96853.38;;;15.70;70.82
70254;BME280;57649;42.968;1.608;2023-03-11T05:57:06;96864.41;;;15.55;71.46
70254;BME280;57649;42.968;1.608;2023-03-11T05:59:32;96872.94;;;15.46;72.49
70254;BME280;57649;42.968;1.608;2023-03-11T06:01:59;96865.88;;;15.51;72.40
70254;BME280;57649;42.968;1.608;2023-03-11T06:04:25;96877.25;;;15.60;71.73
70254;BME280;57649;42.968;1.608;2023-03-11T06:06:51;96876.22;;;15.61;71.90
70254;BME280;57649;42.968;1.608;2023-03-11T06:09:17;96866.50;;;15.53;72.80
70254;BME280;57649;42.968;1.608;2023-03-11T06:11:42;96866.50;;;15.47;73.24
70254;BME280;57649;42.968;1.608;2023-03-11T06:14:12;96866.34;;;15.35;74.23
70254;BME280;57649;42.968;1.608;2023-03-11T06:16:38;96874.41;;;15.48;73.72
70254;BME280;57649;42.968;1.608;2023-03-11T06:19:04;96887.22;;;15.59;72.84
70254;BME280;57649;42.968;1.608;2023-03-11T06:21:29;96891.81;;;15.59;72.94
70254;BME280;57649;42.968;1.608;2023-03-11T06:23:55;96882.72;;;15.40;73.55
70254;BME280;57649;42.968;1.608;2023-03-11T06:26:22;96879.63;;;15.30;74.55
70254;BME280;57649;42.968;1.608;2023-03-11T06:28:48;96906.00;;;15.28;75.34
70254;BME280;57649;42.968;1.608;2023-03-11T06:31:22;96918.00;;;15.25;75.58
70254;BME280;57649;42.968;1.608;2023-03-11T06:33:52;96902.25;;;15.29;75.79
70254;BME280;57649;42.968;1.608;2023-03-11T06:36:18;96892.72;;;15.19;76.83
70254;BME280;57649;42.968;1.608;2023-03-11T06:38:44;96879.47;;;15.11;77.09
70254;BME280;57649;42.968;1.608;2023-03-11T06:41:15;96907.25;;;15.05;78.64
70254;BME280;57649;42.968;1.608;2023-03-11T06:43:41;96890.69;;;14.95;79.08
70254;BME280;57649;42.968;1.608;2023-03-11T06:46:11;96897.91;;;14.94;79.97
70254;BME280;57649;42.968;1.608;2023-03-11T06:48:37;96896.91;;;14.82;80.21
70254;BME280;57649;42.968;1.608;2023-03-11T06:51:02;96913.50;;;14.86;80.42
70254;BME280;57649;42.968;1.608;2023-03-11T06:53:28;96919.91;;;14.85;80.92
70254;BME280;57649;42.968;1.608;2023-03-11T06:58:31;96921.75;;;14.77;81.53
70254;BME280;57649;42.968;1.608;2023-03-11T07:01:05;96879.47;;;14.65;82.54
70254;BME280;57649;42.968;1.608;2023-03-11T07:03:32;96901.22;;;14.63;82.74
70254;BME280;57649;42.968;1.608;2023-03-11T07:05:58;96898.72;;;14.55;83.19
70254;BME280;57649;42.968;1.608;2023-03-11T07:08:24;96919.63;;;14.46;83.97
70254;BME280;57649;42.968;1.608;2023-03-11T07:11:14;96936.00;;;14.51;85.32
70254;BME280;57649;42.968;1.608;2023-03-11T07:13:40;96938.91;;;14.50;84.24
70254;BME280;57649;42.968;1.608;2023-03-11T07:18:34;96952.00;;;14.66;84.18
70254;BME280;57649;42.968;1.608;2023-03-11T07:21:04;96957.97;;;14.55;85.30
70254;BME280;57649;42.968;1.608;2023-03-11T07:23:30;96961.50;;;14.55;85.26
70254;BME280;57649;42.968;1.608;2023-03-11T07:25:56;96945.81;;;14.66;85.18
70254;BME280;57649;42.968;1.608;2023-03-11T07:28:22;96942.91;;;14.67;85.33
70254;BME280;57649;42.968;1.608;2023-03-11T07:30:48;96961.13;;;14.65;85.57
70254;BME280;57649;42.968;1.608;2023-03-11T07:33:14;96967.78;;;14.69;86.08
70254;BME280;57649;42.968;1.608;2023-03-11T07:35:39;96956.94;;;14.56;85.18
70254;BME280;57649;42.968;1.608;2023-03-11T07:38:05;96961.13;;;14.65;85.58
70254;BME280;57649;42.968;1.608;2023-03-11T07:40:30;96964.84;;;14.64;86.48
70254;BME280;57649;42.968;1.608;2023-03-11T07:42:56;96956.78;;;14.64;85.07
70254;BME280;57649;42.968;1.608;2023-03-11T07:45:22;96942.69;;;14.62;85.89
70254;BME280;57649;42.968;1.608;2023-03-11T07:47:47;96952.41;;;14.63;86.38
70254;BME280;57649;42.968;1.608;2023-03-11T07:50:13;96956.56;;;14.72;85.74
70254;BME280;57649;42.968;1.608;2023-03-11T07:52:38;96966.31;;;14.73;86.35
70254;BME280;57649;42.968;1.608;2023-03-11T07:55:04;96948.84;;;14.56;86.13
70254;BME280;57649;42.968;1.608;2023-03-11T07:57:30;96971.47;;;14.61;85.56
70254;BME280;57649;42.968;1.608;2023-03-11T07:59:55;96959.47;;;14.64;84.60
70254;BME280;57649;42.968;1.608;2023-03-11T08:02:20;96968.19;;;14.66;85.58
70254;BME280;57649;42.968;1.608;2023-03-11T08:04:46;96998.44;;;14.81;84.86
70254;BME280;57649;42.968;1.608;2023-03-11T08:07:11;96979.38;;;14.83;83.71
70254;BME280;57649;42.968;1.608;2023-03-11T08:09:36;96965.28;;;14.74;84.30
70254;BME280;57649;42.968;1.608;2023-03-11T08:12:02;96971.94;;;14.78;83.70
70254;BME280;57649;42.968;1.608;2023-03-11T08:14:27;96988.94;;;14.86;84.11
70254;BME280;57649;42.968;1.608;2023-03-11T08:16:53;96974.00;;;14.83;83.05
70254;BME280;57649;42.968;1.608;2023-03-11T08:19:18;96968.38;;;14.78;83.90
70254;BME280;57649;42.968;1.608;2023-03-11T08:21:44;96981.25;;;14.76;83.77
70254;BME280;57649;42.968;1.608;2023-03-11T08:24:12;96988.28;;;14.83;83.46
70254;BME280;57649;42.968;1.608;2023-03-11T08:26:37;96987.69;;;14.75;84.92
70254;BME280;57649;42.968;1.608;2023-03-11T08:29:03;96997.44;;;14.82;84.17
70254;BME280;57649;42.968;1.608;2023-03-11T08:31:31;96977.31;;;14.78;83.39
70254;BME280;57649;42.968;1.608;2023-03-11T08:34:05;96998.06;;;14.91;83.71
70254;BME280;57649;42.968;1.608;2023-03-11T08:36:31;96976.72;;;14.90;83.86
70254;BME280;57649;42.968;1.608;2023-03-11T08:38:57;96990.59;;;14.87;83.46
70254;BME280;57649;42.968;1.608;2023-03-11T08:41:23;96999.94;;;14.84;85.62
70254;BME280;57649;42.968;1.608;2023-03-11T08:43:48;97000.53;;;14.73;88.15
70254;BME280;57649;42.968;1.608;2023-03-11T08:46:39;97009.19;;;14.61;89.64
70254;BME280;57649;42.968;1.608;2023-03-11T08:49:05;97012.88;;;14.47;91.22
70254;BME280;57649;42.968;1.608;2023-03-11T08:51:32;97033.94;;;14.37;95.15
70254;BME280;57649;42.968;1.608;2023-03-11T08:53:59;97030.19;;;14.31;97.57
70254;BME280;57649;42.968;1.608;2023-03-11T08:56:24;97021.47;;;14.22;97.50
70254;BME280;57649;42.968;1.608;2023-03-11T08:58:50;97037.03;;;14.27;99.73
70254;BME280;57649;42.968;1.608;2023-03-11T09:01:16;97023.75;;;14.25;100.00
70254;BME280;57649;42.968;1.608;2023-03-11T09:03:41;97022.78;;;14.40;100.00
70254;BME280;57649;42.968;1.608;2023-03-11T09:06:09;97044.28;;;14.33;99.85
70254;BME280;57649;42.968;1.608;2023-03-11T09:08:36;97051.69;;;14.18;98.60
70254;BME280;57649;42.968;1.608;2023-03-11T09:11:01;97058.72;;;14.19;100.00
70254;BME280;57649;42.968;1.608;2023-03-11T09:13:27;97064.09;;;14.12;100.00
70254;BME280;57649;42.968;1.608;2023-03-11T09:15:53;97063.41;;;14.03;100.00
70254;BME280;57649;42.968;1.608;2023-03-11T09:18:19;97076.63;;;13.98;100.00
70254;BME280;57649;42.968;1.608;2023-03-11T09:20:45;97074.69;;;13.85;100.00
70254;BME280;57649;42.968;1.608;2023-03-11T09:23:13;97087.19;;;13.72;100.00
70254;BME280;57649;42.968;1.608;2023-03-11T09:25:39;97079.91;;;13.65;100.00
70254;BME280;57649;42.968;1.608;2023-03-11T09:28:04;97084.22;;;13.60;100.00
70254;BME280;57649;42.968;1.608;2023-03-11T09:30:30;97070.91;;;13.52;100.00
70254;BME280;57649;42.968;1.608;2023-03-11T09:32:56;97069.31;;;13.57;100.00
70254;BME280;57649;42.968;1.608;2023-03-11T09:35:21;97067.06;;;13.61;100.00
70254;BME280;57649;42.968;1.608;2023-03-11T09:37:47;97069.44;;;13.49;100.00
70254;BME280;57649;42.968;1.608;2023-03-11T09:40:16;97082.63;;;13.44;100.00
70254;BME280;57649;42.968;1.608;2023-03-11T09:45:27;97061.56;;;13.47;100.00
70254;BME280;57649;42.968;1.608;2023-03-11T09:48:31;97059.47;;;13.43;100.00
70254;BME280;57649;42.968;1.608;2023-03-11T09:51:26;97057.91;;;13.55;100.00
70254;BME280;57649;42.968;1.608;2023-03-11T09:54:05;97059.22;;;13.66;100.00
70254;BME280;57649;42.968;1.608;2023-03-11T09:56:33;97056.19;;;13.47;100.00
70254;BME280;57649;42.968;1.608;2023-03-11T09:59:03;97048.31;;;13.46;100.00
70254;BME280;57649;42.968;1.608;2023-03-11T10:01:45;97045.44;;;13.47;100.00
70254;BME280;57649;42.968;1.608;2023-03-11T10:06:43;97056.59;;;13.44;100.00
70254;BME280;57649;42.968;1.608;2023-03-11T10:25:46;97039.63;;;13.72;100.00
70254;BME280;57649;42.968;1.608;2023-03-11T10:28:19;97043.31;;;13.71;100.00
70254;BME280;57649;42.968;1.608;2023-03-11T10:30:53;97041.94;;;13.82;100.00
70254;BME280;57649;42.968;1.608;2023-03-11T10:33:23;97034.47;;;13.77;100.00
70254;BME280;57649;42.968;1.608;2023-03-11T10:35:56;97039.50;;;13.87;100.00
70254;BME280;57649;42.968;1.608;2023-03-11T10:38:39;97038.63;;;14.15;100.00
70254;BME280;57649;42.968;1.608;2023-03-11T10:44:06;97047.41;;;13.95;100.00
70254;BME280;57649;42.968;1.608;2023-03-11T10:46:36;97053.84;;;13.94;100.00
70254;BME280;57649;42.968;1.608;2023-03-11T10:49:01;97059.22;;;14.01;100.00
70254;BME280;57649;42.968;1.608;2023-03-11T10:51:33;97041.78;;;13.90;100.00
70254;BME280;57649;42.968;1.608;2023-03-11T10:54:00;97050.50;;;13.92;100.00
70254;BME280;57649;42.968;1.608;2023-03-11T10:56:35;97055.16;;;14.12;100.00
70254;BME280;57649;42.968;1.608;2023-03-11T10:59:03;97050.72;;;13.97;100.00
70254;BME280;57649;42.968;1.608;2023-03-11T11:01:29;97053.41;;;13.97;100.00
70254;BME280;57649;42.968;1.608;2023-03-11T11:03:57;97057.50;;;13.86;100.00
70254;BME280;57649;42.968;1.608;2023-03-11T11:06:34;97063.09;;;13.85;100.00
70254;BME280;57649;42.968;1.608;2023-03-11T11:09:04;97080.19;;;13.77;100.00
70254;BME280;57649;42.968;1.608;2023-03-11T11:11:31;97066.47;;;13.65;100.00
70254;BME280;57649;42.968;1.608;2023-03-11T11:13:59;97073.91;;;13.63;100.00
70254;BME280;57649;42.968;1.608;2023-03-11T11:16:25;97074.69;;;13.57;100.00
70254;BME280;57649;42.968;1.608;2023-03-11T11:19:12;97069.53;;;13.62;100.00
70254;BME280;57649;42.968;1.608;2023-03-11T11:21:46;97078.38;;;13.84;100.00
70254;BME280;57649;42.968;1.608;2023-03-11T11:26:38;97082.56;;;13.87;100.00
70254;BME280;57649;42.968;1.608;2023-03-11T11:31:39;97100.84;;;13.70;100.00
70254;BME280;57649;42.968;1.608;2023-03-11T11:36:46;97104.41;;;13.77;100.00
70254;BME280;57649;42.968;1.608;2023-03-11T11:39:16;97085.78;;;13.76;100.00
70254;BME280;57649;42.968;1.608;2023-03-11T11:41:43;97091.34;;;14.02;100.00
70254;BME280;57649;42.968;1.608;2023-03-11T11:44:12;97082.06;;;14.12;100.00
70254;BME280;57649;42.968;1.608;2023-03-11T11:46:43;97103.41;;;14.13;100.00
70254;BME280;57649;42.968;1.608;2023-03-11T11:49:30;97085.56;;;14.05;100.00
70254;BME280;57649;42.968;1.608;2023-03-11T11:54:36;97079.88;;;14.22;100.00
70254;BME280;57649;42.968;1.608;2023-03-11T11:57:17;97096.25;;;14.27;98.69
70254;BME280;57649;42.968;1.608;2023-03-11T11:59:44;97102.44;;;14.62;100.00
70254;BME280;57649;42.968;1.608;2023-03-11T12:04:51;97115.72;;;14.71;99.12
70254;BME280;57649;42.968;1.608;2023-03-11T12:07:24;97128.38;;;14.63;98.47
70254;BME280;57649;42.968;1.608;2023-03-11T12:12:35;97106.84;;;14.77;97.01
70254;BME280;57649;42.968;1.608;2023-03-11T12:15:15;97104.31;;;14.62;98.17
70254;BME280;57649;42.968;1.608;2023-03-11T12:17:49;97108.22;;;14.59;100.00
70254;BME280;57649;42.968;1.608;2023-03-11T12:30:46;97097.09;;;14.76;99.06
70254;BME280;57649;42.968;1.608;2023-03-11T12:35:55;97100.00;;;14.74;97.72
70254;BME280;57649;42.968;1.608;2023-03-11T12:38:33;97078.34;;;15.09;99.46
70254;BME280;57649;42.968;1.608;2023-03-11T12:46:05;97110.44;;;14.97;94.22
70254;BME280;57649;42.968;1.608;2023-03-11T12:48:36;97092.00;;;15.01;91.11
70254;BME280;57649;42.968;1.608;2023-03-11T12:51:05;97092.44;;;15.11;92.14
70254;BME280;57649;42.968;1.608;2023-03-11T12:53:46;97086.59;;;15.01;93.27
70254;BME280;57649;42.968;1.608;2023-03-11T12:59:05;97074.13;;;14.80;94.92
70254;BME280;57649;42.968;1.608;2023-03-11T13:09:59;97063.38;;;14.38;99.89
70254;BME280;57649;42.968;1.608;2023-03-11T13:12:43;97067.75;;;14.46;100.00
70254;BME280;57649;42.968;1.608;2023-03-11T13:15:29;97057.16;;;14.44;100.00
70254;BME280;57649;42.968;1.608;2023-03-11T13:20:46;97050.97;;;14.44;99.31
70254;BME280;57649;42.968;1.608;2023-03-11T13:28:36;97043.63;;;14.73;99.96
70254;BME280;57649;42.968;1.608;2023-03-11T13:34:17;97019.41;;;14.86;100.00
70254;BME280;57649;42.968;1.608;2023-03-11T13:37:15;97026.69;;;15.06;100.00
70254;BME280;57649;42.968;1.608;2023-03-11T13:39:52;97015.06;;;15.05;98.78
70254;BME280;57649;42.968;1.608;2023-03-11T13:42:32;97009.28;;;15.21;100.00
70254;BME280;57649;42.968;1.608;2023-03-11T13:45:00;97012.59;;;15.30;100.00
70254;BME280;57649;42.968;1.608;2023-03-11T13:47:26;97013.63;;;15.36;100.00
70254;BME280;57649;42.968;1.608;2023-03-11T13:50:02;97019.25;;;15.41;100.00
70254;BME280;57649;42.968;1.608;2023-03-11T13:52:57;97018.41;;;15.40;100.00
70254;BME280;57649;42.968;1.608;2023-03-11T13:55:33;97027.09;;;15.16;100.00
70254;BME280;57649;42.968;1.608;2023-03-11T13:58:00;97017.16;;;15.10;100.00
70254;BME280;57649;42.968;1.608;2023-03-11T14:00:27;97018.81;;;14.97;100.00
70254;BME280;57649;42.968;1.608;2023-03-11T14:02:56;97021.50;;;15.17;100.00
70254;BME280;57649;42.968;1.608;2023-03-11T14:05:29;97029.38;;;15.12;100.00
70254;BME280;57649;42.968;1.608;2023-03-11T14:08:31;97028.34;;;15.07;100.00
70254;BME280;57649;42.968;1.608;2023-03-11T14:11:14;97030.59;;;14.90;100.00
70254;BME280;57649;42.968;1.608;2023-03-11T14:13:46;97034.38;;;15.02;100.00
70254;BME280;57649;42.968;1.608;2023-03-11T14:16:19;97042.41;;;14.89;100.00
70254;BME280;57649;42.968;1.608;2023-03-11T14:21:33;97070.34;;;14.68;100.00
70254;BME280;57649;42.968;1.608;2023-03-11T14:24:01;97053.56;;;14.72;100.00
70254;BME280;57649;42.968;1.608;2023-03-11T14:26:29;97050.69;;;14.87;100.00
70254;BME280;57649;42.968;1.608;2023-03-11T14:29:00;97033.72;;;14.87;100.00
70254;BME280;57649;42.968;1.608;2023-03-11T14:31:40;97037.47;;;14.99;100.00
70254;BME280;57649;42.968;1.608;2023-03-11T14:34:19;97028.53;;;15.05;100.00
70254;BME280;57649;42.968;1.608;2023-03-11T14:36:46;97047.22;;;15.20;99.59
70254;BME280;57649;42.968;1.608;2023-03-11T14:39:36;97038.94;;;15.15;98.55
70254;BME280;57649;42.968;1.608;2023-03-11T14:44:33;97031.28;;;15.32;97.70
70254;BME280;57649;42.968;1.608;2023-03-11T14:47:13;97025.25;;;15.30;95.06
70254;BME280;57649;42.968;1.608;2023-03-11T14:49:41;97041.84;;;15.33;90.52
70254;BME280;57649;42.968;1.608;2023-03-11T14:52:59;97059.47;;;15.36;93.92
70254;BME280;57649;42.968;1.608;2023-03-11T14:55:14;97052.81;;;15.58;95.48
70254;BME280;57649;42.968;1.608;2023-03-11T14:57:54;97049.94;;;15.53;91.13
70254;BME280;57649;42.968;1.608;2023-03-11T15:00:24;97043.91;;;15.51;85.96
70254;BME280;57649;42.968;1.608;2023-03-11T15:05:31;97059.50;;;15.63;90.29
70254;BME280;57649;42.968;1.608;2023-03-11T15:08:00;97046.84;;;15.50;87.55
70254;BME280;57649;42.968;1.608;2023-03-11T15:10:26;97066.13;;;15.53;87.37
70254;BME280;57649;42.968;1.608;2023-03-11T15:13:07;97068.63;;;15.48;84.18
70254;BME280;57649;42.968;1.608;2023-03-11T15:15:33;97070.47;;;15.54;85.77
70254;BME280;57649;42.968;1.608;2023-03-11T15:17:59;97078.78;;;15.53;86.30
70254;BME280;57649;42.968;1.608;2023-03-11T15:20:31;97053.06;;;15.50;85.65
70254;BME280;57649;42.968;1.608;2023-03-11T15:23:00;97071.53;;;15.47;87.76
70254;BME280;57649;42.968;1.608;2023-03-11T15:25:36;97069.25;;;15.50;84.75
70254;BME280;57649;42.968;1.608;2023-03-11T15:28:19;97071.09;;;15.36;86.07
70254;BME280;57649;42.968;1.608;2023-03-11T15:30:44;97091.25;;;15.54;88.60
70254;BME280;57649;42.968;1.608;2023-03-11T15:33:31;97078.16;;;15.37;87.12